Time;durP1;ratioP1;P1;durP2;ratioP2;P2;SDS_P1;SDS_P2;PMS_P1;PMS_P2;Temp;Humidity;BMP_temperature;BMP_pressure;BME280_temperature;BME280_humidity;BME280_pressure;Samples;Min_cycle;Max_cycle;Signal;HPM_P1;HPM_P2
2022/05/12 00:02:03;;;;;;;10.80;2.40;;;;;;;13.75;68.31;101213.50;5095341;27;20127;-77
2022/05/12 00:04:30;;;;;;;7.40;2.38;;;;;;;13.68;68.83;101207.72;5094475;28;20458;-77
2022/05/12 00:06:56;;;;;;;5.45;2.42;;;;;;;13.63;68.72;101216.22;5095289;28;20030;-77
2022/05/12 00:09:22;;;;;;;6.45;2.25;;;;;;;13.58;68.77;101221.09;5107658;28;20019;-78
2022/05/12 00:11:48;;;;;;;10.65;2.60;;;;;;;13.52;68.85;101221.59;5108390;28;20120;-78
2022/05/12 00:14:13;;;;;;;13.15;2.63;;;;;;;13.52;69.29;101223.44;5105243;28;20357;-78
2022/05/12 00:16:39;;;;;;;9.60;2.08;;;;;;;13.50;68.82;101222.69;5111463;28;20130;-78
2022/05/12 00:19:04;;;;;;;7.45;2.58;;;;;;;13.50;68.86;101226.28;5108957;28;20036;-78
2022/05/12 00:21:29;;;;;;;10.77;2.67;;;;;;;13.47;68.92;101223.81;5094865;28;20479;-78
2022/05/12 00:23:58;;;;;;;12.75;2.95;;;;;;;13.40;68.92;101225.28;5075620;28;20032;-78
2022/05/12 00:26:29;;;;;;;10.63;3.60;;;;;;;13.31;69.35;101232.25;5075986;28;20047;-78
2022/05/12 00:28:57;;;;;;;11.15;2.60;;;;;;;13.18;70.07;101229.66;5074640;28;20100;-78
2022/05/12 00:31:22;;;;;;;10.90;2.72;;;;;;;13.08;70.59;101231.34;5082935;28;20081;-78
2022/05/12 00:33:47;;;;;;;5.05;2.40;;;;;;;12.98;70.91;101235.75;5099258;28;20032;-78
2022/05/12 00:36:13;;;;;;;13.93;3.10;;;;;;;12.90;71.03;101244.44;5111095;28;20028;-78
2022/05/12 00:38:38;;;;;;;8.43;2.40;;;;;;;12.79;71.91;101242.53;5110461;28;20104;-78
2022/05/12 00:41:03;;;;;;;6.93;2.58;;;;;;;12.65;72.43;101258.91;5090464;28;20027;-78
2022/05/12 00:43:40;;;;;;;10.43;2.55;;;;;;;12.72;71.65;101254.75;5099477;28;20039;-78
2022/05/12 00:46:12;;;;;;;8.35;2.60;;;;;;;12.65;72.09;101254.38;5091393;28;20106;-78
2022/05/12 00:48:38;;;;;;;11.82;2.65;;;;;;;12.64;72.51;101257.19;5104861;28;20019;-78
2022/05/12 00:51:05;;;;;;;6.55;2.60;;;;;;;12.54;73.04;101257.03;5111500;28;20019;-78
2022/05/12 00:53:33;;;;;;;7.93;2.80;;;;;;;12.44;73.40;101261.38;5103594;27;20045;-78
2022/05/12 00:55:59;;;;;;;8.52;2.70;;;;;;;12.30;73.79;101265.09;5082269;28;20134;-77
2022/05/12 00:58:26;;;;;;;9.75;2.70;;;;;;;12.24;73.98;101266.44;5091928;28;20032;-77
2022/05/12 01:00:52;;;;;;;8.07;2.65;;;;;;;12.12;74.41;101265.47;5109278;28;20032;-78
2022/05/12 01:03:21;;;;;;;10.35;2.92;;;;;;;12.13;74.34;101259.13;5102287;27;20031;-78
2022/05/12 01:05:48;;;;;;;9.73;2.63;;;;;;;12.10;74.53;101270.13;5092598;28;20044;-77
2022/05/12 01:08:15;;;;;;;14.40;3.55;;;;;;;12.04;74.89;101270.59;5102675;28;20035;-77
2022/05/12 01:10:42;;;;;;;10.50;2.83;;;;;;;11.99;75.24;101279.00;5082169;28;20498;-77
2022/05/12 01:13:07;;;;;;;11.18;2.92;;;;;;;11.99;75.61;101278.13;5096390;28;20463;-77
2022/05/12 01:15:33;;;;;;;10.25;2.63;;;;;;;11.95;75.74;101277.50;5084744;28;20108;-77
2022/05/12 01:18:15;;;;;;;9.00;2.30;;;;;;;11.95;75.27;101280.19;5105340;27;20067;-77
2022/05/12 01:20:40;;;;;;;12.45;2.97;;;;;;;11.89;76.78;101284.16;5105884;28;20493;-77
2022/05/12 01:23:30;;;;;;;8.63;2.92;;;;;;;11.92;75.46;101287.59;5104432;28;20024;-77
2022/05/12 01:25:59;;;;;;;10.52;3.05;;;;;;;11.82;76.61;101285.56;5100435;28;20047;-77
2022/05/12 01:28:25;;;;;;;13.13;2.80;;;;;;;11.79;77.00;101291.16;5079074;28;20020;-77
2022/05/12 01:30:50;;;;;;;12.27;3.47;;;;;;;11.81;77.32;101299.13;5099887;28;20077;-77
2022/05/12 01:33:16;;;;;;;21.80;3.55;;;;;;;11.80;77.51;101297.41;5103563;28;20032;-77
2022/05/12 01:35:41;;;;;;;12.40;3.28;;;;;;;11.78;77.58;101302.06;5103823;28;20036;-77
2022/05/12 01:38:06;;;;;;;13.55;3.25;;;;;;;11.78;77.51;101307.44;5103642;28;20066;-77
2022/05/12 01:40:31;;;;;;;14.85;3.80;;;;;;;11.76;78.09;101310.25;5078260;28;20039;-77
2022/05/12 01:42:57;;;;;;;19.40;3.80;;;;;;;11.71;77.68;101307.00;5095549;28;20031;-77
2022/05/12 01:45:23;;;;;;;13.43;3.17;;;;;;;11.66;77.81;101311.88;5086092;28;20062;-77
2022/05/12 01:47:50;;;;;;;16.60;3.97;;;;;;;11.62;78.00;101315.72;5080965;27;20072;-77
2022/05/12 01:50:16;;;;;;;12.30;3.30;;;;;;;11.58;78.45;101322.28;5092784;27;20034;-77
2022/05/12 01:52:44;;;;;;;16.05;3.28;;;;;;;11.50;77.90;101318.31;5108040;28;20032;-77
2022/05/12 01:55:14;;;;;;;15.07;4.13;;;;;;;11.45;78.28;101314.22;5095650;28;20509;-77
2022/05/12 01:57:43;;;;;;;10.15;3.53;;;;;;;11.43;78.72;101326.94;5092240;28;20036;-77
2022/05/12 02:00:17;;;;;;;15.87;3.63;;;;;;;11.33;78.55;101330.25;5106164;28;20114;-77
2022/05/12 02:02:43;;;;;;;15.32;3.70;;;;;;;11.30;78.84;101329.59;5104138;28;20024;-77
2022/05/12 02:05:10;;;;;;;14.20;3.33;;;;;;;11.26;78.85;101338.84;5111224;28;20388;-77
2022/05/12 02:07:40;;;;;;;12.40;3.25;;;;;;;11.21;79.15;101335.63;5092756;28;20145;-77
2022/05/12 02:10:08;;;;;;;13.20;3.55;;;;;;;11.13;79.05;101334.31;5096632;28;20034;-77
2022/05/12 02:12:33;;;;;;;11.20;3.15;;;;;;;11.10;79.17;101344.41;5103703;28;20028;-77
2022/05/12 02:14:59;;;;;;;13.95;3.30;;;;;;;11.05;79.31;101352.78;5101991;28;20062;-77
2022/05/12 02:17:24;;;;;;;9.63;2.92;;;;;;;11.01;79.42;101348.56;5072599;28;20538;-77
2022/05/12 02:19:49;;;;;;;17.88;3.20;;;;;;;10.98;79.49;101352.34;5107809;28;20023;-77
2022/05/12 02:22:14;;;;;;;12.43;3.53;;;;;;;10.96;80.13;101358.78;5085605;28;20024;-77
2022/05/12 02:24:40;;;;;;;16.05;3.28;;;;;;;10.91;80.12;101355.53;5101589;28;20018;-77
2022/05/12 02:27:06;;;;;;;10.27;2.80;;;;;;;10.89;79.78;101362.84;5095987;28;20093;-77
2022/05/12 02:29:31;;;;;;;14.77;3.78;;;;;;;10.86;79.66;101357.69;5105339;28;20517;-77
2022/05/12 02:31:57;;;;;;;17.20;3.10;;;;;;;10.79;80.39;101363.47;5072569;28;20030;-77
2022/05/12 02:34:22;;;;;;;14.48;3.25;;;;;;;10.77;80.19;101364.53;5089893;28;20027;-77
2022/05/12 02:37:00;;;;;;;12.40;3.20;;;;;;;10.77;80.27;101368.06;5089827;28;20494;-77
2022/05/12 02:39:30;;;;;;;12.48;3.70;;;;;;;10.76;80.40;101374.44;5083928;28;20040;-77
2022/05/12 02:41:56;;;;;;;18.42;4.03;;;;;;;10.75;80.52;101375.38;5111091;28;20016;-78
2022/05/12 02:44:21;;;;;;;12.98;3.78;;;;;;;10.76;80.19;101378.94;5108161;28;20031;-77
2022/05/12 02:46:47;;;;;;;12.43;3.55;;;;;;;10.74;80.37;101380.88;5114211;28;20038;-77
2022/05/12 02:49:12;;;;;;;15.57;3.72;;;;;;;10.73;80.08;101379.13;5093689;28;20027;-77
2022/05/12 02:51:37;;;;;;;14.30;3.85;;;;;;;10.70;80.38;101379.34;5113143;28;20031;-77
2022/05/12 02:54:03;;;;;;;12.63;3.45;;;;;;;10.68;80.37;101382.13;5108447;28;20032;-77
2022/05/12 02:56:29;;;;;;;13.35;4.00;;;;;;;10.68;80.58;101390.19;5099304;28;20032;-77
2022/05/12 02:58:54;;;;;;;15.00;3.80;;;;;;;10.64;80.73;101384.16;5105648;28;20471;-77
2022/05/12 03:01:19;;;;;;;14.88;3.53;;;;;;;10.61;80.22;101389.72;5111377;28;20027;-77
2022/05/12 03:03:45;;;;;;;13.20;4.18;;;;;;;10.57;80.57;101390.00;5103152;27;20411;-78
2022/05/12 03:06:10;;;;;;;14.90;4.38;;;;;;;10.53;80.84;101383.09;5093766;28;20052;-78
2022/05/12 03:08:36;;;;;;;14.35;4.05;;;;;;;10.48;81.04;101392.34;5097286;28;20056;-77
2022/05/12 03:11:04;;;;;;;18.73;4.07;;;;;;;10.43;81.29;101391.78;5098796;28;20028;-77
2022/05/12 03:13:31;;;;;;;18.45;4.32;;;;;;;10.40;80.66;101394.66;5079776;28;20399;-77
2022/05/12 03:15:56;;;;;;;17.33;4.60;;;;;;;10.37;81.05;101400.22;5085510;28;20532;-77
2022/05/12 03:18:22;;;;;;;15.10;3.90;;;;;;;10.37;81.81;101404.75;5104670;27;20061;-77
2022/05/12 03:20:47;;;;;;;17.48;4.80;;;;;;;10.35;81.65;101401.28;5104306;28;20027;-77
2022/05/12 03:23:13;;;;;;;18.17;4.72;;;;;;;10.33;81.98;101409.41;5098386;28;20028;-77
2022/05/12 03:25:41;;;;;;;19.90;5.25;;;;;;;10.27;82.24;101410.66;5107061;28;20023;-77
2022/05/12 03:28:06;;;;;;;19.15;5.85;;;;;;;10.27;82.31;101409.81;5092465;28;20051;-77
2022/05/12 03:30:31;;;;;;;22.40;5.80;;;;;;;10.30;82.93;101409.59;5079143;28;20425;-77
2022/05/12 03:32:57;;;;;;;19.63;5.72;;;;;;;10.35;83.07;101406.66;5085460;28;20116;-77
2022/05/12 03:35:23;;;;;;;20.80;6.25;;;;;;;10.36;82.74;101405.69;5102192;28;20367;-77
2022/05/12 03:37:48;;;;;;;23.90;6.30;;;;;;;10.38;82.89;101411.81;5078925;28;20429;-77
2022/05/12 03:40:17;;;;;;;20.08;6.55;;;;;;;10.38;82.60;101423.47;5082089;28;20015;-77
2022/05/12 03:42:42;;;;;;;24.40;7.07;;;;;;;10.37;82.70;101432.47;5114008;28;20023;-77
2022/05/12 03:45:09;;;;;;;21.25;6.68;;;;;;;10.38;83.49;101428.84;5100514;28;20073;-77
2022/05/12 03:47:36;;;;;;;25.05;6.82;;;;;;;10.41;82.83;101425.06;5079517;27;20027;-77
2022/05/12 03:50:11;;;;;;;22.67;5.88;;;;;;;10.44;83.43;101432.94;5097671;28;20031;-77
2022/05/12 03:52:37;;;;;;;23.10;6.30;;;;;;;10.42;83.36;101434.88;5108887;28;20019;-77
2022/05/12 03:55:05;;;;;;;22.58;7.60;;;;;;;10.41;83.69;101435.81;5095209;28;20099;-77
2022/05/12 03:57:31;;;;;;;23.23;7.70;;;;;;;10.40;83.42;101445.72;5110517;28;20340;-77
2022/05/12 03:59:56;;;;;;;23.13;7.28;;;;;;;10.37;83.84;101448.59;5087873;28;20035;-77
2022/05/12 04:02:22;;;;;;;20.20;7.38;;;;;;;10.38;83.72;101449.44;5105004;28;20093;-77
2022/05/12 04:04:49;;;;;;;23.58;8.48;;;;;;;10.33;84.01;101452.41;5108755;28;20099;-77
2022/05/12 04:07:19;;;;;;;28.10;9.50;;;;;;;10.31;84.39;101454.31;5075105;28;20133;-77
2022/05/12 04:09:45;;;;;;;24.27;8.50;;;;;;;10.30;84.54;101458.81;5087982;28;20028;-78
2022/05/12 04:12:10;;;;;;;23.05;9.23;;;;;;;10.28;84.43;101459.91;5093081;28;20049;-78
2022/05/12 04:14:37;;;;;;;24.65;9.25;;;;;;;10.30;84.82;101452.59;5111487;28;20043;-78
2022/05/12 04:17:04;;;;;;;25.85;8.55;;;;;;;10.34;85.23;101467.59;5107006;28;20036;-77
2022/05/12 04:19:30;;;;;;;27.30;8.95;;;;;;;10.37;85.63;101463.88;5100361;28;20019;-77
2022/05/12 04:21:55;;;;;;;27.75;8.85;;;;;;;10.39;85.42;101470.00;5080610;28;20467;-77
2022/05/12 04:24:20;;;;;;;25.45;9.70;;;;;;;10.43;85.56;101471.53;5103354;28;20111;-77
2022/05/12 04:26:46;;;;;;;24.98;10.18;;;;;;;10.46;85.68;101477.56;5096616;28;20035;-77
2022/05/12 04:29:13;;;;;;;23.92;9.30;;;;;;;10.47;85.84;101484.69;5076358;28;20023;-77
2022/05/12 04:31:39;;;;;;;29.63;9.95;;;;;;;10.51;85.83;101481.78;5080317;28;20062;-77
2022/05/12 04:36:49;;;;;;;30.35;11.07;;;;;;;10.58;86.32;101491.19;5098466;28;20042;-77
2022/05/12 04:39:15;;;;;;;28.38;10.45;;;;;;;10.59;86.57;101490.25;5096630;28;20028;-77
2022/05/12 04:41:41;;;;;;;27.23;11.13;;;;;;;10.63;86.63;101498.03;5085238;28;20027;-77
2022/05/12 04:44:06;;;;;;;24.33;10.75;;;;;;;10.65;86.29;101500.59;5086883;28;20019;-77
2022/05/12 04:46:34;;;;;;;29.73;12.77;;;;;;;10.66;86.34;101500.50;5103420;28;20032;-77
2022/05/12 04:49:00;;;;;;;30.55;11.07;;;;;;;10.70;86.87;101503.84;5083609;28;20510;-77
2022/05/12 04:51:25;;;;;;;27.98;10.20;;;;;;;10.73;87.09;101500.09;5087664;28;20067;-77
2022/05/12 04:53:50;;;;;;;35.70;11.48;;;;;;;10.77;87.11;101498.97;5077605;28;20031;-77
2022/05/12 04:56:16;;;;;;;31.35;12.05;;;;;;;10.79;87.31;101503.28;5091637;28;20031;-78
2022/05/12 04:58:41;;;;;;;36.75;13.43;;;;;;;10.82;87.23;101502.19;5100759;28;20096;-77
2022/05/12 05:01:06;;;;;;;28.55;12.75;;;;;;;10.86;87.71;101503.75;5106756;28;20406;-77
2022/05/12 05:03:32;;;;;;;33.17;12.90;;;;;;;10.94;87.64;101516.72;5093691;28;20044;-77
2022/05/12 05:05:58;;;;;;;28.10;12.75;;;;;;;10.98;87.77;101519.09;5089280;28;20023;-77
2022/05/12 05:08:23;;;;;;;30.67;13.73;;;;;;;11.01;87.74;101524.28;5075687;28;20045;-77
2022/05/12 05:10:49;;;;;;;28.05;12.75;;;;;;;11.08;87.91;101535.50;5114798;27;20108;-77
2022/05/12 05:13:18;;;;;;;30.67;12.65;;;;;;;11.10;88.07;101533.59;5079890;28;20055;-77
2022/05/12 05:15:44;;;;;;;31.83;13.18;;;;;;;11.15;88.00;101546.72;5072344;28;20111;-77
2022/05/12 05:18:12;;;;;;;33.85;13.60;;;;;;;11.19;88.20;101541.06;5103374;27;20363;-77
2022/05/12 05:20:37;;;;;;;30.50;14.05;;;;;;;11.22;88.17;101536.47;5093982;28;20026;-77
2022/05/12 05:23:03;;;;;;;31.25;14.63;;;;;;;11.27;88.45;101531.63;5074442;28;20491;-77
2022/05/12 05:25:31;;;;;;;33.80;14.02;;;;;;;11.33;88.94;101541.97;5091167;28;20036;-77
2022/05/12 05:27:56;;;;;;;32.58;15.70;;;;;;;11.34;88.75;101546.41;5095589;28;20027;-77
2022/05/12 05:30:24;;;;;;;30.25;14.02;;;;;;;11.40;89.19;101555.91;5076055;28;20032;-77
2022/05/12 05:32:50;;;;;;;32.97;15.57;;;;;;;11.44;89.27;101557.44;5101254;28;20387;-77
2022/05/12 05:35:15;;;;;;;29.88;15.50;;;;;;;11.49;89.39;101552.59;5109132;28;20031;-77
2022/05/12 05:37:42;;;;;;;33.03;15.30;;;;;;;11.56;89.63;101561.16;5084134;28;20016;-77
2022/05/12 05:40:09;;;;;;;33.10;15.13;;;;;;;11.61;89.34;101569.78;5097435;28;20036;-77
2022/05/12 05:42:35;;;;;;;28.75;14.55;;;;;;;11.65;89.24;101565.91;5107612;28;20107;-77
2022/05/12 05:45:08;;;;;;;33.53;16.70;;;;;;;11.68;89.43;101577.38;5098141;28;20102;-77
2022/05/12 05:47:34;;;;;;;33.50;16.02;;;;;;;11.75;89.27;101582.34;5102813;27;20028;-77
2022/05/12 05:50:00;;;;;;;32.00;16.58;;;;;;;11.81;89.36;101588.16;5107954;27;20088;-77
2022/05/12 05:55:09;;;;;;;30.98;16.63;;;;;;;11.93;89.50;101597.28;5089003;28;20051;-77
2022/05/12 05:57:36;;;;;;;30.92;15.57;;;;;;;11.99;89.52;101612.16;5076765;28;20036;-77
2022/05/12 06:00:05;;;;;;;33.13;17.13;;;;;;;12.02;89.45;101610.16;5085074;28;20111;-77
2022/05/12 06:02:31;;;;;;;33.80;17.55;;;;;;;12.11;89.53;101616.75;5084997;28;20038;-77
2022/05/12 06:04:56;;;;;;;30.67;16.98;;;;;;;12.17;89.05;101621.72;5076013;28;20024;-76
2022/05/12 06:07:21;;;;;;;33.72;18.70;;;;;;;12.27;88.45;101618.38;5094201;28;20498;-76
2022/05/12 06:09:47;;;;;;;33.08;17.77;;;;;;;12.34;88.28;101617.00;5073033;28;20039;-76
2022/05/12 06:12:12;;;;;;;35.17;18.58;;;;;;;12.39;88.23;101615.72;5079483;28;20429;-76
2022/05/12 06:14:38;;;;;;;39.78;19.40;;;;;;;12.45;87.97;101619.81;5106020;28;20048;-76
2022/05/12 06:17:04;;;;;;;36.47;18.23;;;;;;;12.51;88.11;101629.31;5101755;28;20027;-76
2022/05/12 06:19:29;;;;;;;38.60;19.45;;;;;;;12.54;88.06;101629.97;5088363;28;20031;-76
2022/05/12 06:21:55;;;;;;;33.08;17.95;;;;;;;12.59;87.54;101635.03;5110548;28;20096;-76
2022/05/12 06:24:20;;;;;;;32.78;17.83;;;;;;;12.65;87.69;101640.03;5085064;28;20066;-76
2022/05/12 06:26:46;;;;;;;32.22;16.88;;;;;;;12.70;87.63;101634.31;5106738;28;20102;-77
2022/05/12 06:29:11;;;;;;;30.98;17.30;;;;;;;12.75;87.53;101642.94;5108540;28;20042;-77
2022/05/12 06:31:36;;;;;;;31.98;17.52;;;;;;;12.79;86.92;101643.59;5091585;28;20027;-77
2022/05/12 06:34:02;;;;;;;33.00;19.25;;;;;;;12.83;86.43;101643.25;5105164;28;20019;-78
2022/05/12 06:36:30;;;;;;;32.97;18.77;;;;;;;12.88;86.38;101648.31;5078074;28;20441;-77
2022/05/12 06:38:56;;;;;;;32.33;17.83;;;;;;;12.90;86.41;101641.88;5101921;28;20028;-77
2022/05/12 06:41:23;;;;;;;36.67;19.85;;;;;;;12.93;85.95;101652.44;5078461;28;20035;-78
2022/05/12 06:43:49;;;;;;;31.95;18.08;;;;;;;12.96;84.74;101653.19;5104694;28;20015;-77
2022/05/12 06:46:16;;;;;;;36.20;19.65;;;;;;;13.00;84.90;101662.78;5097626;28;20448;-77
2022/05/12 06:48:47;;;;;;;35.78;18.77;;;;;;;13.04;85.24;101658.91;5100022;28;20023;-77
2022/05/12 06:51:13;;;;;;;35.60;19.60;;;;;;;13.11;84.93;101662.91;5084920;28;20035;-77
2022/05/12 06:53:39;;;;;;;31.33;18.75;;;;;;;13.18;84.36;101661.50;5092416;28;20076;-77
2022/05/12 06:56:05;;;;;;;34.03;19.77;;;;;;;13.24;84.20;101666.44;5109041;28;20513;-77
2022/05/12 06:58:30;;;;;;;31.20;17.65;;;;;;;13.26;81.97;101669.03;5093499;28;20024;-77
2022/05/12 07:00:56;;;;;;;36.67;18.42;;;;;;;13.33;82.07;101672.16;5094380;28;20032;-77
2022/05/12 07:03:22;;;;;;;30.42;17.63;;;;;;;13.42;81.93;101669.69;5083854;28;20054;-78
2022/05/12 07:05:48;;;;;;;32.35;18.25;;;;;;;13.49;80.07;101677.38;5072131;28;20035;-77
2022/05/12 07:08:13;;;;;;;30.25;18.58;;;;;;;13.52;79.01;101683.38;5078510;28;20877;-78
2022/05/12 07:10:38;;;;;;;29.92;17.95;;;;;;;13.57;79.04;101674.94;5092508;28;20027;-77
2022/05/12 07:13:04;;;;;;;32.10;18.85;;;;;;;13.67;79.95;101678.69;5108409;28;20107;-77
2022/05/12 07:15:30;;;;;;;32.65;19.02;;;;;;;13.78;79.06;101680.63;5093592;28;20076;-78
2022/05/12 07:17:57;;;;;;;32.45;17.10;;;;;;;13.86;78.97;101677.34;5095250;27;20031;-77
2022/05/12 07:28:38;;;;;;;33.10;18.05;;;;;;;13.68;76.33;101695.78;5109392;27;20494;-76
2022/05/12 07:31:05;;;;;;;31.55;17.15;;;;;;;13.74;77.43;101695.34;5109501;28;20106;-78
2022/05/12 07:33:31;;;;;;;29.45;16.80;;;;;;;13.83;77.33;101699.19;5091749;28;20054;-78
2022/05/12 07:35:58;;;;;;;33.00;18.05;;;;;;;13.94;77.15;101694.72;5115408;27;20027;-77
2022/05/12 07:38:24;;;;;;;25.85;14.50;;;;;;;14.05;75.11;101699.31;5090301;28;20414;-77
2022/05/12 07:40:50;;;;;;;24.50;12.25;;;;;;;14.16;72.53;101696.69;5114237;27;20035;-77
2022/05/12 07:43:15;;;;;;;25.67;13.23;;;;;;;14.27;71.77;101709.38;5109480;28;20085;-77
2022/05/12 07:45:40;;;;;;;28.83;14.98;;;;;;;14.32;70.91;101700.97;5087965;28;20043;-78
2022/05/12 07:48:06;;;;;;;24.52;13.77;;;;;;;14.43;72.46;101708.25;5097085;27;20065;-78
2022/05/12 07:50:32;;;;;;;27.27;14.52;;;;;;;14.57;73.65;101715.28;5108554;27;20076;-78
2022/05/12 07:52:57;;;;;;;29.20;15.05;;;;;;;14.67;71.26;101717.22;5108580;27;20027;-78
2022/05/12 07:55:23;;;;;;;24.80;14.27;;;;;;;14.70;69.43;101712.53;5089353;28;20071;-78
2022/05/12 07:57:50;;;;;;;27.95;15.38;;;;;;;14.73;68.99;101715.00;5116318;27;20479;-78
2022/05/12 08:00:16;;;;;;;27.05;14.65;;;;;;;14.78;68.72;101719.09;5107023;27;20490;-77
2022/05/12 08:02:41;;;;;;;27.40;14.68;;;;;;;14.86;69.64;101715.78;5090410;28;20055;-78
2022/05/12 08:05:06;;;;;;;25.35;14.65;;;;;;;14.91;67.88;101731.69;5091177;28;20417;-78
2022/05/12 08:07:32;;;;;;;29.05;14.52;;;;;;;14.91;66.43;101723.56;5096771;27;20059;-78
2022/05/12 08:10:00;;;;;;;24.30;14.02;;;;;;;14.96;66.65;101719.50;5090803;28;20023;-79
2022/05/12 08:12:26;;;;;;;28.95;14.70;;;;;;;15.00;66.38;101720.13;5109689;28;20030;-78
2022/05/12 08:14:51;;;;;;;36.10;13.93;;;;;;;15.05;66.75;101730.59;5110802;27;20051;-78
2022/05/12 08:17:17;;;;;;;24.30;13.85;;;;;;;15.03;65.04;101723.44;5129645;27;20445;-77
2022/05/12 08:19:42;;;;;;;27.65;14.98;;;;;;;15.05;66.19;101736.84;5116447;27;20032;-77
2022/05/12 08:22:07;;;;;;;24.38;13.75;;;;;;;15.16;66.27;101727.91;5109073;28;20459;-77
2022/05/12 08:24:33;;;;;;;25.02;12.98;;;;;;;15.24;64.30;101730.84;5085806;28;20409;-77
2022/05/12 08:26:59;;;;;;;22.13;8.77;;;;;;;15.29;63.09;101735.94;5085638;28;20020;-78
2022/05/12 08:29:24;;;;;;;23.92;9.45;;;;;;;15.27;61.83;101741.47;5106075;28;20023;-77
2022/05/12 08:31:49;;;;;;;22.55;8.65;;;;;;;15.32;63.03;101732.97;5090556;28;20027;-77
2022/05/12 08:34:14;;;;;;;24.33;8.70;;;;;;;15.41;62.65;101725.97;5089053;28;20023;-77
2022/05/12 08:36:40;;;;;;;21.23;8.60;;;;;;;15.49;61.56;101728.91;5089428;28;20035;-77
2022/05/12 08:39:05;;;;;;;23.83;10.27;;;;;;;15.53;60.93;101722.25;5108672;28;20031;-77
2022/05/12 08:41:40;;;;;;;21.10;9.50;;;;;;;15.51;61.73;101724.25;5121916;27;20022;-77
2022/05/12 08:44:14;;;;;;;20.00;7.75;;;;;;;15.44;60.90;101731.13;5101731;28;20020;-80
2022/05/12 08:46:45;;;;;;;20.60;7.22;;;;;;;15.35;60.35;101739.00;5107054;28;20123;-79
2022/05/12 08:49:19;;;;;;;21.52;7.18;;;;;;;15.35;59.90;101732.75;5116165;27;20399;-75
2022/05/12 08:51:48;;;;;;;19.52;7.18;;;;;;;15.39;57.51;101723.38;5104693;28;20055;-80
2022/05/12 08:54:18;;;;;;;18.00;6.85;;;;;;;15.42;58.25;101738.50;5115038;27;20424;-77
2022/05/12 08:56:43;;;;;;;20.80;8.18;;;;;;;15.37;57.74;101731.63;5085967;28;20084;-77
2022/05/12 08:59:09;;;;;;;23.55;9.32;;;;;;;15.29;57.56;101739.50;5104427;28;20455;-76
2022/05/12 09:01:55;;;;;;;17.63;7.63;;;;;;;15.25;59.12;101748.84;5107786;28;20039;-76
2022/05/12 09:04:54;;;;;;;21.50;8.43;;;;;;;15.17;59.17;101741.34;5106650;28;20038;-77
2022/05/12 09:07:28;;;;;;;21.52;8.80;;;;;;;15.18;59.99;101742.19;5083437;28;20038;-77
2022/05/12 09:10:11;;;;;;;22.58;9.73;;;;;;;15.30;58.87;101743.94;5108489;28;20035;-77
2022/05/12 09:12:42;;;;;;;24.15;8.88;;;;;;;15.52;60.19;101739.50;5104293;28;20087;-77
2022/05/12 09:15:31;;;;;;;21.02;9.35;;;;;;;15.69;59.85;101735.44;5106165;28;20367;-77
2022/05/12 09:18:03;;;;;;;23.83;10.52;;;;;;;15.90;58.06;101732.84;5093289;27;20062;-77
2022/05/12 09:20:31;;;;;;;25.30;10.20;;;;;;;15.98;55.99;101733.09;5089924;28;20413;-77
2022/05/12 09:22:58;;;;;;;24.42;10.27;;;;;;;15.97;56.68;101749.50;5104538;28;20037;-77
2022/05/12 09:25:29;;;;;;;20.45;8.30;;;;;;;15.88;56.57;101746.53;5109814;28;20027;-77
2022/05/12 09:27:58;;;;;;;27.80;8.70;;;;;;;15.82;55.54;101743.47;5107930;28;20078;-77
2022/05/12 09:30:37;;;;;;;24.48;8.88;;;;;;;15.76;56.84;101743.94;5088602;28;20031;-77
2022/05/12 09:33:03;;;;;;;;;;;;;;;15.73;57.44;101747.75;5088752;28;20051;-77
2022/05/12 09:35:30;;;;;;;20.55;8.20;;;;;;;15.73;55.34;101745.91;5081380;28;20074;-77
2022/05/12 09:37:56;;;;;;;18.83;8.05;;;;;;;15.89;54.97;101747.41;5087636;28;20031;-77
2022/05/12 09:40:21;;;;;;;18.20;7.53;;;;;;;15.99;53.61;101737.53;5085974;28;20023;-77
2022/05/12 09:42:56;;;;;;;22.70;8.45;;;;;;;16.13;54.40;101730.09;5119906;27;20054;-77
2022/05/12 09:45:34;;;;;;;21.17;9.60;;;;;;;16.26;52.31;101736.22;5095368;28;20026;-77
2022/05/12 09:48:19;;;;;;;20.80;9.73;;;;;;;16.39;53.68;101728.78;5112311;27;20034;-77
2022/05/12 09:50:47;;;;;;;18.38;6.43;;;;;;;16.53;53.88;101729.47;5115435;27;20386;-78
2022/05/12 09:53:22;;;;;;;17.88;6.20;;;;;;;16.55;49.74;101733.78;5114654;27;20156;-78
2022/05/12 09:56:06;;;;;;;19.55;6.22;;;;;;;16.55;52.87;101738.34;5114265;27;20113;-78
2022/05/12 09:58:38;;;;;;;17.85;6.57;;;;;;;16.57;50.87;101736.34;5084533;28;20023;-78
2022/05/12 10:01:20;;;;;;;17.83;6.15;;;;;;;16.66;52.44;101730.16;5106733;28;20118;-78
2022/05/12 10:09:23;;;;;;;13.93;3.95;;;;;;;16.61;45.78;101729.69;5107800;28;20096;-78
2022/05/12 10:11:48;;;;;;;13.70;3.97;;;;;;;16.55;47.72;101730.22;5120769;27;20114;-78
2022/05/12 10:14:36;;;;;;;13.93;4.40;;;;;;;16.48;49.36;101734.44;5120794;28;20826;-77
2022/05/12 10:17:17;;;;;;;19.58;6.30;;;;;;;16.44;49.73;101731.09;5088592;28;20147;-77
2022/05/12 10:19:44;;;;;;;19.83;6.78;;;;;;;16.41;51.95;101734.97;5118970;28;20027;-77
2022/05/12 10:22:28;;;;;;;17.92;6.55;;;;;;;16.43;51.46;101741.09;5106461;28;20077;-77
2022/05/12 10:25:02;;;;;;;16.50;6.70;;;;;;;16.38;49.31;101727.09;5118464;28;20266;-77
2022/05/12 10:27:49;;;;;;;18.95;5.57;;;;;;;16.41;50.49;101737.66;5105734;28;20032;-77
2022/05/12 10:30:25;;;;;;;17.27;6.68;;;;;;;16.42;50.78;101733.94;5106930;28;20024;-78
2022/05/12 10:32:58;;;;;;;17.92;6.85;;;;;;;16.50;51.31;101741.47;5105706;28;20100;-78
2022/05/12 10:35:51;;;;;;;16.92;6.72;;;;;;;16.63;50.04;101733.13;5086677;28;20313;-77
2022/05/12 10:38:35;;;;;;;14.77;5.70;;;;;;;16.80;50.79;101731.69;5096665;27;20518;-77
2022/05/12 10:41:25;;;;;;;17.15;4.88;;;;;;;16.88;49.08;101733.75;5106993;28;20035;-77
2022/05/12 10:44:05;;;;;;;16.30;5.63;;;;;;;16.88;47.79;101725.63;5087350;28;20073;-77
2022/05/12 10:46:48;;;;;;;12.70;4.45;;;;;;;16.90;49.65;101734.50;5086822;28;20035;-77
2022/05/12 10:49:22;;;;;;;18.00;5.60;;;;;;;16.90;49.26;101731.78;5103981;28;20118;-77
2022/05/12 10:52:09;;;;;;;11.75;5.00;;;;;;;16.91;47.25;101730.78;5126862;28;20034;-77
2022/05/12 10:55:12;;;;;;;12.98;4.35;;;;;;;16.92;46.94;101737.94;5116230;27;20031;-77
2022/05/12 10:57:54;;;;;;;17.52;6.13;;;;;;;16.91;47.48;101733.50;5096420;28;20050;-77
2022/05/12 11:00:42;;;;;;;19.73;6.65;;;;;;;16.94;47.79;101733.22;5090223;28;20023;-78
2022/05/12 11:03:15;;;;;;;21.08;7.60;;;;;;;17.07;49.22;101727.59;5110736;28;20015;-78
2022/05/12 11:05:47;;;;;;;18.08;7.00;;;;;;;17.19;48.30;101740.13;5089983;28;20023;-78
2022/05/12 11:08:29;;;;;;;20.02;7.72;;;;;;;17.29;47.63;101718.44;5111387;28;20039;-77
2022/05/12 11:11:08;;;;;;;18.65;7.30;;;;;;;17.28;46.70;101719.44;5107838;28;20062;-77
2022/05/12 11:13:39;;;;;;;17.02;7.13;;;;;;;17.28;46.34;101722.16;5090481;28;20051;-77
2022/05/12 11:16:11;;;;;;;18.05;7.50;;;;;;;17.25;45.46;101726.00;5086610;28;20092;-77
2022/05/12 11:18:53;;;;;;;16.95;7.70;;;;;;;17.25;45.59;101717.00;5111250;27;20030;-78
2022/05/12 11:21:25;;;;;;;16.02;6.25;;;;;;;17.31;46.64;101713.75;5103439;28;20127;-78
2022/05/12 11:23:57;;;;;;;19.58;7.72;;;;;;;17.48;47.14;101709.50;5110669;27;20468;-78
2022/05/12 11:26:40;;;;;;;17.38;7.88;;;;;;;17.58;45.74;101709.56;5111459;27;20073;-77
2022/05/12 11:32:17;;;;;;;22.23;8.40;;;;;;;17.68;42.85;101704.16;5110130;27;20394;-77
2022/05/12 11:34:46;;;;;;;20.75;8.35;;;;;;;17.79;45.75;101713.06;5108227;28;20035;-77
2022/05/12 11:37:33;;;;;;;14.55;6.07;;;;;;;17.91;46.11;101693.94;5088827;28;20043;-78
2022/05/12 11:40:01;;;;;;;15.20;6.65;;;;;;;17.91;43.42;101704.84;5104893;28;20030;-77
2022/05/12 11:42:28;;;;;;;13.70;6.07;;;;;;;17.85;43.16;101697.19;5108720;27;20040;-78
2022/05/12 11:45:08;;;;;;;13.40;6.63;;;;;;;17.75;42.51;101698.03;5109608;28;20460;-78